• Join FlightAware (Why Join?)
  • Login
  • US Flag 
04:59PM EDT


 

Airport Tracker/Info


-or-


 

Live Flight TrackerFlight Track Log ✈ N137TK ✈ 18-Oct-2013 ✈ KAPF - KNEW

Flight Track Log - Related Links

Times and Time Zones

All times are in EDT time to prevent confusion due to time zone crossing. See the N137TK flight status page for this flight to view local times or setup timezone preferences in your user account.

Time Position Orientation Groundspeed Altitude Reporting Facility
EDT Latitude Longitude Course Direction KTS MPH feet Rate Location/Type
02:15PM 26.1078 -81.9186 261° West 178 205 5,500  Level Miami Center
02:16PM 26.1036 -81.9739 265° West 178 205 7,400 1,800 Climbing Miami Center
02:17PM 26.1039 -82.0294 270° West 178 205 9,200 1,680 Climbing Miami Center
02:18PM 26.3191 -82.0981 297° West  Level Estimated
02:18PM 26.1269 -82.0811 296° West 178 205 10,800  Level Miami Center
02:19PM 26.3081 -82.1715 261° West  Level FlightAware Approximate
02:19PM 26.1500 -82.1353 295° West 197 227 12,200  Level Miami Center
02:20PM 26.1775 -82.1897 299° West 197 227 13,300 1,200 Climbing Miami Center
02:21PM 26.2025 -82.2464 296° West 202 232 14,600 1,200 Climbing Miami Center
02:22PM 26.2275 -82.3031 296° West 202 232 15,800 1,260 Climbing Miami Center
02:23PM 26.2564 -82.3669 297° West 202 232 17,200 1,200 Climbing Miami Center
02:24PM 26.2833 -82.4261 297° West 202 232 18,200 960 Climbing Miami Center
02:25PM 26.3064 -82.4806 295° West 207 238 19,200 1,020 Climbing Miami Center
02:26PM 26.3333 -82.5397 297° West 207 238 20,300 1,020 Climbing Miami Center
02:27PM 26.3564 -82.5917 296° West 207 238 21,300 960 Climbing Miami Center
02:28PM 26.3792 -82.6461 295° West 201 231 22,300 960 Climbing Miami Center
02:29PM 26.4019 -82.7006 295° West 201 231 23,300 900 Climbing Miami Center
02:30PM 26.4269 -82.7528 298° West 196 226 24,200 840 Climbing Miami Center
02:31PM 26.4500 -82.8050 296° West 196 226 25,000 780 Climbing Miami Center
02:32PM 26.4731 -82.8547 297° West 191 220 25,800 480 Climbing Miami Center
02:33PM 26.4958 -82.9092 295° West 191 220 26,000 60 Climbing Miami Center
02:34PM 26.5264 -82.9758 297° West 210 242 26,000  Level Miami Center
02:35PM 26.5547 -83.0444 295° West 233 268 26,000  Level Miami Center
02:36PM 26.5892 -83.1183 298° West 251 289 26,000  Level Miami Center
02:37PM 26.6236 -83.1922 298° West 261 300 26,000  Level Miami Center
02:38PM 26.6556 -83.2681 295° West 261 300 26,000  Level Miami Center
02:39PM 26.6878 -83.3419 296° West 261 300 26,000  Level Miami Center
02:40PM 26.7200 -83.4156 296° West 261 300 26,000  Level Miami Center
02:41PM 26.7500 -83.4894 294° West 266 306 26,000  Level Miami Center
02:42PM 26.7842 -83.5633 297° West 266 306 26,000  Level Miami Center
02:43PM 26.8181 -83.6419 296° West 259 298 26,000  Level Miami Center
02:44PM 26.8481 -83.7158 294° West 264 304 26,000  Level Miami Center
02:45PM 26.8842 -83.7900 299° West 264 304 26,000  Level Miami Center
02:46PM 26.9161 -83.8642 296° West 264 304 26,000  Level Miami Center
02:47PM 26.9456 -83.9403 293° West 264 304 26,000  Level Miami Center
02:48PM 26.9794 -84.0147 297° West 259 298 26,000  Level Miami Center
02:49PM 27.0092 -84.0886 294° West 265 305 26,000  Level Miami Center
02:50PM 27.0411 -84.1606 297° West 260 299 26,000  Level Miami Center
02:51PM 27.0728 -84.2347 296° West 265 305 26,000  Level Miami Center
02:52PM 27.1022 -84.3089 294° West 260 299 26,000  Level Miami Center
02:53PM 27.1319 -84.3806 295° West 265 305 26,000  Level Miami Center
02:54PM 27.1678 -84.4528 299° West 260 299 26,000  Level Miami Center
02:55PM 27.1994 -84.5272 296° West 265 305 26,000  Level Miami Center
02:56PM 27.2267 -84.5989 293° West 259 298 26,000  Level Miami Center
02:57PM 27.2583 -84.6711 296° West 259 298 26,000  Level Miami Center
02:58PM 27.2897 -84.7456 295° West 259 298 26,000  Level Miami Center
02:59PM 27.3211 -84.8200 295° West 259 298 26,000  Level Miami Center
03:00PM 27.3506 -84.8897 295° West 264 304 26,000  Level Miami Center
03:01PM 27.3819 -84.9644 295° West 259 298 26,000  Level Miami Center
03:02PM 27.4153 -85.0367 297° West 259 298 26,000  Level Miami Center
03:03PM 27.4606 -85.1511 294° West 264 304 26,000  Level Jacksonville Center
03:04PM 27.4906 -85.2197 296° West 258 297 26,000  Level Jacksonville Center
03:05PM 27.5203 -85.3044 292° West 268 308 26,000  Level Jacksonville Center
03:06PM 27.5525 -85.3708 299° West 273 314 26,000  Level Jacksonville Center
03:07PM 27.5825 -85.4369 297° West 257 296 26,000  Level Jacksonville Center
03:08PM 27.6142 -85.5175 294° West 257 296 26,000  Level Jacksonville Center
03:09PM 27.6439 -85.5883 295° West 257 296 26,000  Level Jacksonville Center
03:10PM 27.6717 -85.6594 294° West 252 290 26,000  Level Jacksonville Center
03:11PM 27.7014 -85.7331 295° West 253 291 26,000  Level Jacksonville Center
03:12PM 27.7311 -85.8042 295° West 259 298 26,000  Level Jacksonville Center
03:13PM 27.7608 -85.8706 297° West 246 283 26,000  Level Jacksonville Center
03:14PM 27.7903 -85.9464 294° West 246 283 26,000  Level Jacksonville Center
03:15PM 27.8200 -86.0131 297° West 246 283 26,000  Level Jacksonville Center
03:16PM 27.8494 -86.0914 293° West 256 295 26,000  Level Jacksonville Center
03:17PM 27.8808 -86.1650 296° West 256 295 26,000  Level Jacksonville Center
03:18PM 27.9083 -86.2317 295° West 256 295 26,000  Level Jacksonville Center
03:19PM 27.9400 -86.3056 296° West 251 289 26,000  Level Jacksonville Center
03:20PM 27.9694 -86.3747 296° West 251 289 26,000  Level Jacksonville Center
03:21PM 27.9964 -86.4486 292° West 256 295 26,000  Level Jacksonville Center
03:22PM 28.0317 -86.5319 296° West 265 305 26,000  Level Jacksonville Center
03:23PM 28.0531 -86.5869 294° West 243 280 26,000  Level Jacksonville Center
03:24PM 28.0842 -86.6633 295° West 246 283 26,000  Level Jacksonville Center
03:25PM 28.1172 -86.7467 294° West 263 303 26,000  Level Jacksonville Center
03:26PM 28.1425 -86.8089 295° West 248 285 26,000  Level Jacksonville Center
03:27PM 28.1714 -86.8831 294° West 257 296 26,000  Level Jacksonville Center
03:28PM 28.2006 -86.9572 294° West 251 289 26,000  Level Jacksonville Center
03:29PM 28.2336 -87.0339 296° West 257 296 26,000  Level Jacksonville Center
03:30PM 28.2583 -87.1033 292° West 251 289 26,000  Level Jacksonville Center
03:31PM 28.2872 -87.1750 295° West 251 289 26,000  Level Jacksonville Center
03:33PM 28.3225 -87.2594 295° West 251 289 26,000  Level Houston Center
03:34PM 28.3578 -87.3458 295° West 252 290 26,000  Level Houston Center
03:35PM 28.3853 -87.4186 293° West 251 289 26,000  Level Houston Center
03:36PM 28.4144 -87.4908 295° West 252 290 26,000  Level Houston Center
03:37PM 28.4419 -87.5622 294° West 249 287 26,000  Level Houston Center
03:38PM 28.4708 -87.6353 294° West 252 290 26,000  Level Houston Center
03:39PM 28.5044 -87.7208 294° West 250 288 26,000  Level Houston Center
03:40PM 28.5331 -87.7942 294° West 253 291 26,000  Level Houston Center
03:41PM 28.5603 -87.8647 294° West 247 284 26,000  Level Houston Center
03:42PM 28.5886 -87.9375 294° West 252 290 26,000  Level Houston Center
03:43PM 28.6194 -88.0164 294° West 250 288 26,000  Level Houston Center
03:44PM 28.6469 -88.0875 294° West 248 285 26,000  Level Houston Center
03:45PM 28.6744 -88.1572 294° West 249 287 26,000  Level Houston Center
03:46PM 28.7147 -88.2219 305° West 251 289 26,000  Level Houston Center
03:47PM 28.7653 -88.2994 307° West 256 295 26,000  Level Houston Center
03:48PM 28.8069 -88.3642 306° West 254 292 26,000  Level Houston Center
03:49PM 28.8483 -88.4292 306° West 255 293 26,000  Level Houston Center
03:50PM 28.8911 -88.4933 307° West 254 292 26,000 -60 Level Houston Center
03:51PM 28.9319 -88.5583 306° West 255 293 25,900 -600 Descending Houston Center
03:52PM 28.9775 -88.6272 307° West 269 310 24,800 -1,140 Descending Houston Center
03:53PM 29.0347 -88.7169 306° West 291 335 23,600 -1,080 Descending Houston Center
03:54PM 29.0839 -88.7928 307° West 295 339 22,600 -1,020 Descending Houston Center
03:56PM 29.1325 -88.8686 306° West 296 341 21,600 -1,020 Descending Houston Center
03:57PM 29.1803 -88.9444 306° West 296 341 20,600 -1,020 Descending Houston Center
03:58PM 29.2294 -89.0194 307° West 295 339 19,600 -1,080 Descending Houston Center
03:59PM 29.2883 -89.1136 306° West 302 348 18,400 -1,080 Descending Houston Center
04:00PM 29.3375 -89.1933 305° West 305 351 17,400 -960 Descending Houston Center
04:01PM 29.3867 -89.2689 307° West 300 345 16,400 -1,020 Descending Houston Center
04:02PM 29.4333 -89.3425 306° West 292 336 15,400 -1,020 Descending Houston Center
04:03PM 29.4797 -89.4156 306° West 286 329 14,400 -1,020 Descending Houston Center
04:04PM 29.5264 -89.4894 306° West 285 328 13,400 -1,020 Descending Houston Center
04:04PM 29.5483 -89.5228 307° West 283 326 13,000 -1,200 Descending Houston Center
04:05PM 29.5817 -89.5786 304° West 283 326 12,200 -1,020 Descending Houston Center
04:06PM 29.6217 -89.6414 306° West 282 325 11,400 -1,020 Descending Houston Center
04:06PM 29.6275 -89.6489 312° West 281 323 11,200 -540 Descending Houston Center
04:07PM 29.6569 -89.6947 306° West 253 291 11,000 -480 Descending Houston Center
04:07PM 29.6675 -89.7131 304° West 261 300 10,700 -1,500 Descending Houston Center
04:08PM 29.7078 -89.7764 306° West 237 273 9,100 -1,560 Descending Houston Center
04:08PM 29.7064 -89.7736 120° Southeast 241 277 9,100 -1,440 Level Houston Center
04:09PM 29.7458 -89.8364 306° West 240 276 7,600 -1,620 Descending Houston Center
04:10PM 29.7994 -89.8872 321° Northwest 222 255 6,000 -1,500 Descending Houston Center
04:10PM 29.7939 -89.8822 142° Southeast 225 259 6,100 -1,440 Climbing Houston Center
04:11PM 29.8381 -89.9239 321° Northwest 216 249 4,700 -1,800 Descending Houston Center
04:11PM 29.8514 -89.9367 320° Northwest 223 257 4,300 -1,620 Descending Houston Center
04:12PM 29.8900 -89.9719 322° Northwest 226 260 3,100 -1,500 Descending Houston Center
04:12PM 29.8994 -89.9822 317° Northwest 223 257 2,800 -1,380 Descending Houston Center
04:13PM 29.9264 -90.0064 322° Northwest 219 252 2,000 -1,200 Descending Houston Center
04:13PM 29.9456 -90.0233 323° Northwest 218 251 1,600 -720 Descending Houston Center
04:14PM 29.9794 -90.0306 350° North 131 151 1,100 -600 Descending Houston Center
04:14PM 29.9844 -90.0300 North 168 193 1,000 -660 Descending Houston Center
04:15PM 30.0131 -90.0292 North 120 138 500 -720 Descending Houston Center
04:15PM 30.0194 -90.0300 354° North 141 162 300 -240 Descending Houston Center
04:16PM 30.0517 -90.0308 359° North 137 158 200 -120 Descending Houston Center
04:18PM 30.0424 -90.0283 180° South  Level Estimated
04:25PM 30.0424 -90.0283 180° South  Level Estimated